sensor_id;sensor_type;location;lat;lon;timestamp;P1;durP1;ratioP1;P2;durP2;ratioP2
42702;SDS011;28341;52.064;4.920;2023-02-11T00:01:59;28.65;;;5.63;;
42702;SDS011;28341;52.064;4.920;2023-02-11T00:04:05;32.05;;;5.15;;
42702;SDS011;28341;52.064;4.920;2023-02-11T00:06:12;33.45;;;6.72;;
42702;SDS011;28341;52.064;4.920;2023-02-11T00:08:17;37.67;;;5.88;;
42702;SDS011;28341;52.064;4.920;2023-02-11T00:10:21;33.53;;;5.82;;
42702;SDS011;28341;52.064;4.920;2023-02-11T00:12:26;30.35;;;6.18;;
42702;SDS011;28341;52.064;4.920;2023-02-11T00:14:31;34.47;;;5.88;;
42702;SDS011;28341;52.064;4.920;2023-02-11T00:16:36;37.13;;;5.47;;
42702;SDS011;28341;52.064;4.920;2023-02-11T00:18:40;28.25;;;5.47;;
42702;SDS011;28341;52.064;4.920;2023-02-11T00:20:45;36.80;;;6.53;;
42702;SDS011;28341;52.064;4.920;2023-02-11T00:22:52;35.15;;;5.70;;
42702;SDS011;28341;52.064;4.920;2023-02-11T00:24:57;33.13;;;5.45;;
42702;SDS011;28341;52.064;4.920;2023-02-11T00:27:01;27.17;;;4.35;;
42702;SDS011;28341;52.064;4.920;2023-02-11T00:29:06;29.80;;;5.38;;
42702;SDS011;28341;52.064;4.920;2023-02-11T00:31:10;33.67;;;6.00;;
42702;SDS011;28341;52.064;4.920;2023-02-11T00:33:15;34.10;;;5.85;;
42702;SDS011;28341;52.064;4.920;2023-02-11T00:35:20;37.47;;;5.07;;
42702;SDS011;28341;52.064;4.920;2023-02-11T00:37:25;33.45;;;5.32;;
42702;SDS011;28341;52.064;4.920;2023-02-11T00:39:32;34.17;;;7.10;;
42702;SDS011;28341;52.064;4.920;2023-02-11T00:41:37;33.33;;;5.07;;
42702;SDS011;28341;52.064;4.920;2023-02-11T00:43:41;27.95;;;5.28;;
42702;SDS011;28341;52.064;4.920;2023-02-11T00:45:46;28.25;;;5.20;;
42702;SDS011;28341;52.064;4.920;2023-02-11T00:47:50;32.30;;;5.20;;
42702;SDS011;28341;52.064;4.920;2023-02-11T00:49:55;34.47;;;6.38;;
42702;SDS011;28341;52.064;4.920;2023-02-11T00:52:01;30.58;;;5.93;;
42702;SDS011;28341;52.064;4.920;2023-02-11T00:54:08;27.25;;;5.47;;
42702;SDS011;28341;52.064;4.920;2023-02-11T00:56:15;37.97;;;5.20;;
42702;SDS011;28341;52.064;4.920;2023-02-11T00:58:20;38.03;;;6.88;;
42702;SDS011;28341;52.064;4.920;2023-02-11T01:00:24;30.08;;;5.72;;
42702;SDS011;28341;52.064;4.920;2023-02-11T01:02:29;26.98;;;5.45;;
42702;SDS011;28341;52.064;4.920;2023-02-11T01:04:34;37.00;;;7.05;;
42702;SDS011;28341;52.064;4.920;2023-02-11T01:06:38;32.55;;;5.80;;
42702;SDS011;28341;52.064;4.920;2023-02-11T01:08:43;40.10;;;6.85;;
42702;SDS011;28341;52.064;4.920;2023-02-11T01:10:52;36.90;;;5.93;;
42702;SDS011;28341;52.064;4.920;2023-02-11T01:13:01;31.88;;;5.88;;
42702;SDS011;28341;52.064;4.920;2023-02-11T01:15:06;28.33;;;5.30;;
42702;SDS011;28341;52.064;4.920;2023-02-11T01:17:14;33.63;;;6.82;;
42702;SDS011;28341;52.064;4.920;2023-02-11T01:19:19;33.40;;;5.90;;
42702;SDS011;28341;52.064;4.920;2023-02-11T01:21:23;31.88;;;6.07;;
42702;SDS011;28341;52.064;4.920;2023-02-11T01:23:28;27.42;;;5.57;;
42702;SDS011;28341;52.064;4.920;2023-02-11T01:25:32;36.83;;;7.05;;
42702;SDS011;28341;52.064;4.920;2023-02-11T01:27:37;33.58;;;6.28;;
42702;SDS011;28341;52.064;4.920;2023-02-11T01:29:45;40.20;;;6.90;;
42702;SDS011;28341;52.064;4.920;2023-02-11T01:31:49;35.05;;;5.80;;
42702;SDS011;28341;52.064;4.920;2023-02-11T01:33:54;31.00;;;5.43;;
42702;SDS011;28341;52.064;4.920;2023-02-11T01:35:59;28.75;;;6.82;;
42702;SDS011;28341;52.064;4.920;2023-02-11T01:38:05;36.90;;;6.93;;
42702;SDS011;28341;52.064;4.920;2023-02-11T01:40:12;31.50;;;6.20;;
42702;SDS011;28341;52.064;4.920;2023-02-11T01:42:19;29.75;;;5.50;;
42702;SDS011;28341;52.064;4.920;2023-02-11T01:44:27;35.55;;;6.85;;
42702;SDS011;28341;52.064;4.920;2023-02-11T01:46:36;26.80;;;6.65;;
42702;SDS011;28341;52.064;4.920;2023-02-11T01:48:42;32.40;;;6.30;;
42702;SDS011;28341;52.064;4.920;2023-02-11T01:50:50;32.88;;;6.45;;
42702;SDS011;28341;52.064;4.920;2023-02-11T01:53:02;25.73;;;5.05;;
42702;SDS011;28341;52.064;4.920;2023-02-11T01:55:20;40.75;;;7.20;;
42702;SDS011;28341;52.064;4.920;2023-02-11T01:57:37;29.08;;;5.38;;
42702;SDS011;28341;52.064;4.920;2023-02-11T01:59:45;26.67;;;5.78;;
42702;SDS011;28341;52.064;4.920;2023-02-11T02:01:58;27.13;;;5.15;;
42702;SDS011;28341;52.064;4.920;2023-02-11T02:04:13;29.33;;;6.38;;
42702;SDS011;28341;52.064;4.920;2023-02-11T02:06:24;28.92;;;6.63;;
42702;SDS011;28341;52.064;4.920;2023-02-11T02:08:33;31.10;;;5.53;;
42702;SDS011;28341;52.064;4.920;2023-02-11T02:10:42;36.72;;;7.35;;
42702;SDS011;28341;52.064;4.920;2023-02-11T02:12:50;27.38;;;5.95;;
42702;SDS011;28341;52.064;4.920;2023-02-11T02:15:09;33.88;;;6.00;;
42702;SDS011;28341;52.064;4.920;2023-02-11T02:17:30;29.33;;;7.20;;
42702;SDS011;28341;52.064;4.920;2023-02-11T02:22:49;49.65;;;8.20;;
42702;SDS011;28341;52.064;4.920;2023-02-11T02:28:17;23.65;;;5.35;;
42702;SDS011;28341;52.064;4.920;2023-02-11T02:31:04;26.30;;;5.93;;
42702;SDS011;28341;52.064;4.920;2023-02-11T02:33:47;33.35;;;6.25;;
42702;SDS011;28341;52.064;4.920;2023-02-11T02:36:00;31.13;;;6.47;;
42702;SDS011;28341;52.064;4.920;2023-02-11T02:38:12;28.77;;;6.13;;
42702;SDS011;28341;52.064;4.920;2023-02-11T02:40:22;28.58;;;6.45;;
42702;SDS011;28341;52.064;4.920;2023-02-11T02:42:29;26.92;;;5.97;;
42702;SDS011;28341;52.064;4.920;2023-02-11T02:44:34;32.33;;;6.38;;
42702;SDS011;28341;52.064;4.920;2023-02-11T02:46:38;34.60;;;7.70;;
42702;SDS011;28341;52.064;4.920;2023-02-11T02:48:43;30.48;;;6.38;;
42702;SDS011;28341;52.064;4.920;2023-02-11T02:50:52;29.77;;;6.38;;
42702;SDS011;28341;52.064;4.920;2023-02-11T02:53:10;32.17;;;6.75;;
42702;SDS011;28341;52.064;4.920;2023-02-11T02:55:23;36.13;;;7.70;;
42702;SDS011;28341;52.064;4.920;2023-02-11T03:00:18;36.15;;;6.72;;
42702;SDS011;28341;52.064;4.920;2023-02-11T03:02:30;30.75;;;6.82;;
42702;SDS011;28341;52.064;4.920;2023-02-11T03:04:43;33.05;;;7.40;;
42702;SDS011;28341;52.064;4.920;2023-02-11T03:06:55;31.48;;;7.32;;
42702;SDS011;28341;52.064;4.920;2023-02-11T03:09:05;30.35;;;7.07;;
42702;SDS011;28341;52.064;4.920;2023-02-11T03:11:14;35.08;;;7.15;;
42702;SDS011;28341;52.064;4.920;2023-02-11T03:13:21;28.35;;;6.55;;
42702;SDS011;28341;52.064;4.920;2023-02-11T03:15:33;30.58;;;7.47;;
42702;SDS011;28341;52.064;4.920;2023-02-11T03:17:43;39.05;;;8.48;;
42702;SDS011;28341;52.064;4.920;2023-02-11T03:19:53;28.70;;;7.88;;
42702;SDS011;28341;52.064;4.920;2023-02-11T03:21:58;26.67;;;8.27;;
42702;SDS011;28341;52.064;4.920;2023-02-11T03:24:04;32.33;;;7.88;;
42702;SDS011;28341;52.064;4.920;2023-02-11T03:26:13;31.83;;;7.93;;
42702;SDS011;28341;52.064;4.920;2023-02-11T03:28:22;37.42;;;8.57;;
42702;SDS011;28341;52.064;4.920;2023-02-11T03:30:32;40.80;;;8.82;;
42702;SDS011;28341;52.064;4.920;2023-02-11T03:32:41;36.63;;;10.35;;
42702;SDS011;28341;52.064;4.920;2023-02-11T03:34:55;32.90;;;9.30;;
42702;SDS011;28341;52.064;4.920;2023-02-11T03:37:03;42.65;;;11.77;;
42702;SDS011;28341;52.064;4.920;2023-02-11T03:39:12;39.35;;;11.73;;
42702;SDS011;28341;52.064;4.920;2023-02-11T03:41:20;42.55;;;11.65;;
42702;SDS011;28341;52.064;4.920;2023-02-11T03:43:27;45.63;;;12.75;;
42702;SDS011;28341;52.064;4.920;2023-02-11T03:45:34;38.05;;;12.57;;
42702;SDS011;28341;52.064;4.920;2023-02-11T03:47:42;42.88;;;12.93;;
42702;SDS011;28341;52.064;4.920;2023-02-11T03:49:48;53.15;;;13.55;;
42702;SDS011;28341;52.064;4.920;2023-02-11T03:51:58;53.05;;;13.75;;
42702;SDS011;28341;52.064;4.920;2023-02-11T03:54:06;47.25;;;14.20;;
42702;SDS011;28341;52.064;4.920;2023-02-11T03:56:14;50.15;;;15.48;;
42702;SDS011;28341;52.064;4.920;2023-02-11T03:58:23;57.35;;;14.90;;
42702;SDS011;28341;52.064;4.920;2023-02-11T04:00:28;56.30;;;16.13;;
42702;SDS011;28341;52.064;4.920;2023-02-11T04:02:34;44.72;;;15.65;;
42702;SDS011;28341;52.064;4.920;2023-02-11T04:04:40;44.03;;;13.93;;
42702;SDS011;28341;52.064;4.920;2023-02-11T04:06:45;45.15;;;14.55;;
42702;SDS011;28341;52.064;4.920;2023-02-11T04:08:52;39.67;;;14.30;;
42702;SDS011;28341;52.064;4.920;2023-02-11T04:10:56;53.58;;;14.10;;
42702;SDS011;28341;52.064;4.920;2023-02-11T04:13:01;49.53;;;14.50;;
42702;SDS011;28341;52.064;4.920;2023-02-11T04:15:06;39.47;;;15.20;;
42702;SDS011;28341;52.064;4.920;2023-02-11T04:17:11;42.15;;;14.48;;
42702;SDS011;28341;52.064;4.920;2023-02-11T04:19:16;52.28;;;14.95;;
42702;SDS011;28341;52.064;4.920;2023-02-11T04:21:20;49.58;;;14.50;;
42702;SDS011;28341;52.064;4.920;2023-02-11T04:23:25;51.25;;;16.70;;
42702;SDS011;28341;52.064;4.920;2023-02-11T04:25:32;48.92;;;15.63;;
42702;SDS011;28341;52.064;4.920;2023-02-11T04:27:36;49.95;;;15.73;;
42702;SDS011;28341;52.064;4.920;2023-02-11T04:29:41;47.72;;;15.80;;
42702;SDS011;28341;52.064;4.920;2023-02-11T04:31:45;62.33;;;16.15;;
42702;SDS011;28341;52.064;4.920;2023-02-11T04:33:50;45.40;;;14.63;;
42702;SDS011;28341;52.064;4.920;2023-02-11T04:35:54;53.92;;;17.02;;
42702;SDS011;28341;52.064;4.920;2023-02-11T04:37:59;42.15;;;16.70;;
42702;SDS011;28341;52.064;4.920;2023-02-11T04:40:04;49.83;;;16.70;;
42702;SDS011;28341;52.064;4.920;2023-02-11T04:42:12;43.38;;;14.75;;
42702;SDS011;28341;52.064;4.920;2023-02-11T04:44:17;50.08;;;16.90;;
42702;SDS011;28341;52.064;4.920;2023-02-11T04:46:22;41.00;;;15.15;;
42702;SDS011;28341;52.064;4.920;2023-02-11T04:48:26;47.13;;;15.50;;
42702;SDS011;28341;52.064;4.920;2023-02-11T04:50:31;41.17;;;16.35;;
42702;SDS011;28341;52.064;4.920;2023-02-11T04:52:35;42.60;;;15.20;;
42702;SDS011;28341;52.064;4.920;2023-02-11T04:54:40;56.97;;;15.18;;
42702;SDS011;28341;52.064;4.920;2023-02-11T04:56:44;44.55;;;14.32;;
42702;SDS011;28341;52.064;4.920;2023-02-11T04:58:52;65.47;;;16.42;;
42702;SDS011;28341;52.064;4.920;2023-02-11T05:01:03;51.83;;;15.27;;
42702;SDS011;28341;52.064;4.920;2023-02-11T05:03:09;48.78;;;15.52;;
42702;SDS011;28341;52.064;4.920;2023-02-11T05:05:13;49.50;;;17.15;;
42702;SDS011;28341;52.064;4.920;2023-02-11T05:07:18;46.67;;;15.15;;
42702;SDS011;28341;52.064;4.920;2023-02-11T05:09:22;50.05;;;16.35;;
42702;SDS011;28341;52.064;4.920;2023-02-11T05:11:27;48.65;;;18.52;;
42702;SDS011;28341;52.064;4.920;2023-02-11T05:13:32;45.15;;;16.05;;
42702;SDS011;28341;52.064;4.920;2023-02-11T05:15:39;44.40;;;15.60;;
42702;SDS011;28341;52.064;4.920;2023-02-11T05:17:43;54.05;;;17.55;;
42702;SDS011;28341;52.064;4.920;2023-02-11T05:19:48;41.78;;;16.23;;
42702;SDS011;28341;52.064;4.920;2023-02-11T05:21:53;48.45;;;18.23;;
42702;SDS011;28341;52.064;4.920;2023-02-11T05:23:58;47.20;;;17.40;;
42702;SDS011;28341;52.064;4.920;2023-02-11T05:26:02;45.72;;;17.70;;
42702;SDS011;28341;52.064;4.920;2023-02-11T05:28:07;54.75;;;18.27;;
42702;SDS011;28341;52.064;4.920;2023-02-11T05:30:12;50.35;;;17.52;;
42702;SDS011;28341;52.064;4.920;2023-02-11T05:32:19;45.83;;;17.45;;
42702;SDS011;28341;52.064;4.920;2023-02-11T05:34:24;51.92;;;18.35;;
42702;SDS011;28341;52.064;4.920;2023-02-11T05:36:28;45.88;;;17.75;;
42702;SDS011;28341;52.064;4.920;2023-02-11T05:38:33;45.15;;;18.52;;
42702;SDS011;28341;52.064;4.920;2023-02-11T05:40:38;52.42;;;18.33;;
42702;SDS011;28341;52.064;4.920;2023-02-11T05:42:42;54.40;;;18.42;;
42702;SDS011;28341;52.064;4.920;2023-02-11T05:44:47;45.63;;;18.08;;
42702;SDS011;28341;52.064;4.920;2023-02-11T05:46:51;50.85;;;18.95;;
42702;SDS011;28341;52.064;4.920;2023-02-11T05:48:58;50.55;;;19.15;;
42702;SDS011;28341;52.064;4.920;2023-02-11T05:51:03;49.03;;;19.02;;
42702;SDS011;28341;52.064;4.920;2023-02-11T05:53:08;49.50;;;18.92;;
42702;SDS011;28341;52.064;4.920;2023-02-11T05:55:12;47.20;;;17.05;;
42702;SDS011;28341;52.064;4.920;2023-02-11T05:57:17;52.20;;;19.45;;
42702;SDS011;28341;52.064;4.920;2023-02-11T05:59:22;45.47;;;19.30;;
42702;SDS011;28341;52.064;4.920;2023-02-11T06:01:26;43.55;;;19.38;;
42702;SDS011;28341;52.064;4.920;2023-02-11T06:03:31;51.05;;;19.02;;
42702;SDS011;28341;52.064;4.920;2023-02-11T06:05:38;48.22;;;19.38;;
42702;SDS011;28341;52.064;4.920;2023-02-11T06:07:42;50.65;;;20.65;;
42702;SDS011;28341;52.064;4.920;2023-02-11T06:09:47;51.00;;;20.65;;
42702;SDS011;28341;52.064;4.920;2023-02-11T06:11:51;47.50;;;19.80;;
42702;SDS011;28341;52.064;4.920;2023-02-11T06:13:56;65.25;;;21.67;;
42702;SDS011;28341;52.064;4.920;2023-02-11T06:16:01;56.13;;;21.40;;
42702;SDS011;28341;52.064;4.920;2023-02-11T06:18:07;55.53;;;21.63;;
42702;SDS011;28341;52.064;4.920;2023-02-11T06:20:12;59.70;;;22.00;;
42702;SDS011;28341;52.064;4.920;2023-02-11T06:22:19;59.05;;;20.77;;
42702;SDS011;28341;52.064;4.920;2023-02-11T06:24:24;51.83;;;22.63;;
42702;SDS011;28341;52.064;4.920;2023-02-11T06:26:29;45.97;;;21.13;;
42702;SDS011;28341;52.064;4.920;2023-02-11T06:28:33;54.70;;;21.27;;
42702;SDS011;28341;52.064;4.920;2023-02-11T06:30:37;47.85;;;21.35;;
42702;SDS011;28341;52.064;4.920;2023-02-11T06:32:42;50.63;;;21.50;;
42702;SDS011;28341;52.064;4.920;2023-02-11T06:34:47;53.92;;;21.50;;
42702;SDS011;28341;52.064;4.920;2023-02-11T06:36:51;61.63;;;25.45;;
42702;SDS011;28341;52.064;4.920;2023-02-11T06:38:59;46.40;;;22.23;;
42702;SDS011;28341;52.064;4.920;2023-02-11T06:41:03;53.22;;;23.55;;
42702;SDS011;28341;52.064;4.920;2023-02-11T06:43:08;54.70;;;24.00;;
42702;SDS011;28341;52.064;4.920;2023-02-11T06:45:13;56.67;;;24.48;;
42702;SDS011;28341;52.064;4.920;2023-02-11T06:47:18;54.10;;;22.85;;
42702;SDS011;28341;52.064;4.920;2023-02-11T06:49:22;67.28;;;25.38;;
42702;SDS011;28341;52.064;4.920;2023-02-11T06:51:27;59.42;;;24.90;;
42702;SDS011;28341;52.064;4.920;2023-02-11T06:53:33;58.33;;;24.48;;
42702;SDS011;28341;52.064;4.920;2023-02-11T06:55:42;54.70;;;24.23;;
42702;SDS011;28341;52.064;4.920;2023-02-11T06:57:46;57.40;;;24.05;;
42702;SDS011;28341;52.064;4.920;2023-02-11T06:59:51;64.90;;;24.90;;
42702;SDS011;28341;52.064;4.920;2023-02-11T07:01:56;52.58;;;23.33;;
42702;SDS011;28341;52.064;4.920;2023-02-11T07:04:00;62.40;;;23.98;;
42702;SDS011;28341;52.064;4.920;2023-02-11T07:06:05;54.75;;;24.40;;
42702;SDS011;28341;52.064;4.920;2023-02-11T07:08:13;57.20;;;24.25;;
42702;SDS011;28341;52.064;4.920;2023-02-11T07:10:18;66.35;;;27.17;;
42702;SDS011;28341;52.064;4.920;2023-02-11T07:12:25;58.60;;;26.63;;
42702;SDS011;28341;52.064;4.920;2023-02-11T07:14:29;58.72;;;25.73;;
42702;SDS011;28341;52.064;4.920;2023-02-11T07:16:34;57.40;;;26.73;;
42702;SDS011;28341;52.064;4.920;2023-02-11T07:18:40;59.35;;;27.63;;
42702;SDS011;28341;52.064;4.920;2023-02-11T07:20:45;59.47;;;26.27;;
42702;SDS011;28341;52.064;4.920;2023-02-11T07:22:50;60.75;;;27.55;;
42702;SDS011;28341;52.064;4.920;2023-02-11T07:24:54;63.42;;;28.48;;
42702;SDS011;28341;52.064;4.920;2023-02-11T07:26:59;59.15;;;27.75;;
42702;SDS011;28341;52.064;4.920;2023-02-11T07:29:08;54.30;;;25.75;;
42702;SDS011;28341;52.064;4.920;2023-02-11T07:31:14;55.03;;;27.13;;
42702;SDS011;28341;52.064;4.920;2023-02-11T07:33:20;63.92;;;28.77;;
42702;SDS011;28341;52.064;4.920;2023-02-11T07:35:25;55.13;;;28.52;;
42702;SDS011;28341;52.064;4.920;2023-02-11T07:37:29;59.38;;;27.88;;
42702;SDS011;28341;52.064;4.920;2023-02-11T07:39:36;65.10;;;28.17;;
42702;SDS011;28341;52.064;4.920;2023-02-11T07:41:40;59.15;;;27.85;;
42702;SDS011;28341;52.064;4.920;2023-02-11T07:43:47;60.13;;;28.80;;
42702;SDS011;28341;52.064;4.920;2023-02-11T07:45:55;61.58;;;29.08;;
42702;SDS011;28341;52.064;4.920;2023-02-11T07:48:00;54.03;;;27.55;;
42702;SDS011;28341;52.064;4.920;2023-02-11T07:50:05;56.17;;;26.90;;
42702;SDS011;28341;52.064;4.920;2023-02-11T07:52:10;60.03;;;28.60;;
42702;SDS011;28341;52.064;4.920;2023-02-11T07:54:14;59.85;;;28.88;;
42702;SDS011;28341;52.064;4.920;2023-02-11T07:56:20;58.08;;;28.77;;
42702;SDS011;28341;52.064;4.920;2023-02-11T07:58:24;57.88;;;30.00;;
42702;SDS011;28341;52.064;4.920;2023-02-11T08:00:29;60.63;;;28.45;;
42702;SDS011;28341;52.064;4.920;2023-02-11T08:02:36;47.97;;;27.23;;
42702;SDS011;28341;52.064;4.920;2023-02-11T08:04:41;62.08;;;29.05;;
42702;SDS011;28341;52.064;4.920;2023-02-11T08:06:45;57.22;;;28.13;;
42702;SDS011;28341;52.064;4.920;2023-02-11T08:08:52;55.70;;;28.95;;
42702;SDS011;28341;52.064;4.920;2023-02-11T08:10:56;57.22;;;28.27;;
42702;SDS011;28341;52.064;4.920;2023-02-11T08:13:01;51.55;;;28.48;;
42702;SDS011;28341;52.064;4.920;2023-02-11T08:15:06;53.22;;;28.27;;
42702;SDS011;28341;52.064;4.920;2023-02-11T08:17:11;56.65;;;29.77;;
42702;SDS011;28341;52.064;4.920;2023-02-11T08:19:19;56.95;;;31.10;;
42702;SDS011;28341;52.064;4.920;2023-02-11T08:21:23;71.65;;;39.00;;
42702;SDS011;28341;52.064;4.920;2023-02-11T08:23:28;146.48;;;91.47;;
42702;SDS011;28341;52.064;4.920;2023-02-11T08:25:32;69.28;;;40.63;;
42702;SDS011;28341;52.064;4.920;2023-02-11T08:27:37;95.53;;;55.25;;
42702;SDS011;28341;52.064;4.920;2023-02-11T08:29:41;60.15;;;30.88;;
42702;SDS011;28341;52.064;4.920;2023-02-11T08:31:46;67.28;;;37.33;;
42702;SDS011;28341;52.064;4.920;2023-02-11T08:33:51;53.90;;;27.67;;
42702;SDS011;28341;52.064;4.920;2023-02-11T08:36:00;54.97;;;27.77;;
42702;SDS011;28341;52.064;4.920;2023-02-11T08:38:09;51.38;;;28.15;;
42702;SDS011;28341;52.064;4.920;2023-02-11T08:40:14;50.38;;;28.33;;
42702;SDS011;28341;52.064;4.920;2023-02-11T08:42:19;53.95;;;28.05;;
42702;SDS011;28341;52.064;4.920;2023-02-11T08:44:24;50.80;;;28.85;;
42702;SDS011;28341;52.064;4.920;2023-02-11T08:46:29;47.47;;;28.70;;
42702;SDS011;28341;52.064;4.920;2023-02-11T08:48:33;50.00;;;28.73;;
42702;SDS011;28341;52.064;4.920;2023-02-11T08:50:37;56.58;;;28.83;;
42702;SDS011;28341;52.064;4.920;2023-02-11T08:52:45;50.47;;;28.95;;
42702;SDS011;28341;52.064;4.920;2023-02-11T08:54:51;54.42;;;28.08;;
42702;SDS011;28341;52.064;4.920;2023-02-11T08:56:55;53.47;;;28.65;;
42702;SDS011;28341;52.064;4.920;2023-02-11T08:59:01;73.43;;;40.13;;
42702;SDS011;28341;52.064;4.920;2023-02-11T09:01:07;76.38;;;46.20;;
42702;SDS011;28341;52.064;4.920;2023-02-11T09:03:12;108.18;;;66.05;;
42702;SDS011;28341;52.064;4.920;2023-02-11T09:05:17;70.15;;;39.13;;
42702;SDS011;28341;52.064;4.920;2023-02-11T09:07:22;55.33;;;30.63;;
42702;SDS011;28341;52.064;4.920;2023-02-11T09:09:29;52.47;;;28.30;;
42702;SDS011;28341;52.064;4.920;2023-02-11T09:11:34;54.72;;;29.50;;
42702;SDS011;28341;52.064;4.920;2023-02-11T09:13:40;48.40;;;28.77;;
42702;SDS011;28341;52.064;4.920;2023-02-11T09:15:45;51.80;;;28.92;;
42702;SDS011;28341;52.064;4.920;2023-02-11T09:17:50;52.60;;;29.77;;
42702;SDS011;28341;52.064;4.920;2023-02-11T09:19:54;55.25;;;29.67;;
42702;SDS011;28341;52.064;4.920;2023-02-11T09:22:00;54.55;;;29.25;;
42702;SDS011;28341;52.064;4.920;2023-02-11T09:24:04;49.78;;;30.45;;
42702;SDS011;28341;52.064;4.920;2023-02-11T09:26:14;53.78;;;29.67;;
42702;SDS011;28341;52.064;4.920;2023-02-11T09:28:20;47.90;;;30.42;;
42702;SDS011;28341;52.064;4.920;2023-02-11T09:30:25;52.63;;;31.80;;
42702;SDS011;28341;52.064;4.920;2023-02-11T09:32:29;50.83;;;30.05;;
42702;SDS011;28341;52.064;4.920;2023-02-11T09:34:34;53.63;;;30.70;;
42702;SDS011;28341;52.064;4.920;2023-02-11T09:36:39;53.88;;;30.83;;
42702;SDS011;28341;52.064;4.920;2023-02-11T09:38:44;53.17;;;30.30;;
42702;SDS011;28341;52.064;4.920;2023-02-11T09:40:49;55.88;;;31.67;;
42702;SDS011;28341;52.064;4.920;2023-02-11T09:42:59;52.47;;;31.05;;
42702;SDS011;28341;52.064;4.920;2023-02-11T09:45:10;54.22;;;31.25;;
42702;SDS011;28341;52.064;4.920;2023-02-11T09:47:22;55.22;;;31.35;;
42702;SDS011;28341;52.064;4.920;2023-02-11T09:49:31;48.35;;;31.27;;
42702;SDS011;28341;52.064;4.920;2023-02-11T09:51:41;53.70;;;30.27;;
42702;SDS011;28341;52.064;4.920;2023-02-11T09:53:48;50.80;;;29.77;;
42702;SDS011;28341;52.064;4.920;2023-02-11T09:55:57;45.67;;;28.48;;
42702;SDS011;28341;52.064;4.920;2023-02-11T09:58:07;52.65;;;30.48;;
42702;SDS011;28341;52.064;4.920;2023-02-11T10:00:17;46.72;;;29.02;;
42702;SDS011;28341;52.064;4.920;2023-02-11T10:02:26;48.90;;;29.77;;
42702;SDS011;28341;52.064;4.920;2023-02-11T10:04:43;47.20;;;28.88;;
42702;SDS011;28341;52.064;4.920;2023-02-11T10:07:10;52.47;;;29.38;;
42702;SDS011;28341;52.064;4.920;2023-02-11T10:09:31;44.72;;;28.48;;
42702;SDS011;28341;52.064;4.920;2023-02-11T10:11:51;45.08;;;28.80;;
42702;SDS011;28341;52.064;4.920;2023-02-11T10:14:09;49.38;;;28.80;;
42702;SDS011;28341;52.064;4.920;2023-02-11T10:16:28;44.92;;;30.20;;
42702;SDS011;28341;52.064;4.920;2023-02-11T10:21:23;47.90;;;29.15;;
42702;SDS011;28341;52.064;4.920;2023-02-11T10:23:34;42.05;;;28.27;;
42702;SDS011;28341;52.064;4.920;2023-02-11T10:25:42;94.68;;;65.75;;
42702;SDS011;28341;52.064;4.920;2023-02-11T10:27:49;63.25;;;43.72;;
42702;SDS011;28341;52.064;4.920;2023-02-11T10:29:58;42.45;;;28.58;;
42702;SDS011;28341;52.064;4.920;2023-02-11T10:32:05;43.88;;;27.50;;
42702;SDS011;28341;52.064;4.920;2023-02-11T10:34:18;41.42;;;27.80;;
42702;SDS011;28341;52.064;4.920;2023-02-11T10:36:26;40.42;;;27.13;;
42702;SDS011;28341;52.064;4.920;2023-02-11T10:38:32;34.90;;;25.73;;
42702;SDS011;28341;52.064;4.920;2023-02-11T10:40:36;43.92;;;27.23;;
42702;SDS011;28341;52.064;4.920;2023-02-11T10:42:41;44.00;;;28.05;;
42702;SDS011;28341;52.064;4.920;2023-02-11T10:44:53;39.25;;;25.30;;
42702;SDS011;28341;52.064;4.920;2023-02-11T10:47:08;32.35;;;22.75;;
42702;SDS011;28341;52.064;4.920;2023-02-11T10:51:44;46.88;;;32.58;;
42702;SDS011;28341;52.064;4.920;2023-02-11T10:53:49;56.53;;;40.55;;
42702;SDS011;28341;52.064;4.920;2023-02-11T10:56:18;39.45;;;24.88;;
42702;SDS011;28341;52.064;4.920;2023-02-11T10:58:27;28.58;;;19.52;;
42702;SDS011;28341;52.064;4.920;2023-02-11T11:00:37;31.60;;;19.98;;
42702;SDS011;28341;52.064;4.920;2023-02-11T11:02:43;27.85;;;18.83;;
42702;SDS011;28341;52.064;4.920;2023-02-11T11:04:47;25.45;;;17.52;;
42702;SDS011;28341;52.064;4.920;2023-02-11T11:06:52;22.85;;;16.38;;
42702;SDS011;28341;52.064;4.920;2023-02-11T11:08:57;19.75;;;13.32;;
42702;SDS011;28341;52.064;4.920;2023-02-11T11:11:03;20.45;;;14.30;;
42702;SDS011;28341;52.064;4.920;2023-02-11T11:13:23;18.15;;;13.40;;
42702;SDS011;28341;52.064;4.920;2023-02-11T11:15:30;25.17;;;13.85;;
42702;SDS011;28341;52.064;4.920;2023-02-11T11:17:37;20.30;;;12.75;;
42702;SDS011;28341;52.064;4.920;2023-02-11T11:19:42;17.45;;;12.43;;
42702;SDS011;28341;52.064;4.920;2023-02-11T11:21:47;17.08;;;12.00;;
42702;SDS011;28341;52.064;4.920;2023-02-11T11:23:54;19.77;;;11.63;;
42702;SDS011;28341;52.064;4.920;2023-02-11T11:26:01;18.55;;;11.07;;
42702;SDS011;28341;52.064;4.920;2023-02-11T11:28:15;18.45;;;11.30;;
42702;SDS011;28341;52.064;4.920;2023-02-11T11:30:25;17.13;;;11.55;;
42702;SDS011;28341;52.064;4.920;2023-02-11T11:32:38;18.40;;;11.02;;
42702;SDS011;28341;52.064;4.920;2023-02-11T11:34:47;17.83;;;11.63;;
42702;SDS011;28341;52.064;4.920;2023-02-11T11:36:55;14.43;;;10.70;;
42702;SDS011;28341;52.064;4.920;2023-02-11T11:39:02;13.05;;;10.52;;
42702;SDS011;28341;52.064;4.920;2023-02-11T11:41:25;15.48;;;10.05;;
42702;SDS011;28341;52.064;4.920;2023-02-11T11:43:31;14.27;;;9.93;;
42702;SDS011;28341;52.064;4.920;2023-02-11T11:45:37;16.25;;;10.70;;
42702;SDS011;28341;52.064;4.920;2023-02-11T11:47:46;19.27;;;9.80;;
42702;SDS011;28341;52.064;4.920;2023-02-11T11:52:32;14.00;;;8.85;;
42702;SDS011;28341;52.064;4.920;2023-02-11T11:54:42;15.13;;;9.48;;
42702;SDS011;28341;52.064;4.920;2023-02-11T11:59:05;12.52;;;8.73;;
42702;SDS011;28341;52.064;4.920;2023-02-11T12:01:19;15.27;;;8.43;;
42702;SDS011;28341;52.064;4.920;2023-02-11T12:03:43;15.05;;;8.15;;
42702;SDS011;28341;52.064;4.920;2023-02-11T12:06:15;12.05;;;7.45;;
42702;SDS011;28341;52.064;4.920;2023-02-11T12:08:32;10.82;;;7.68;;
42702;SDS011;28341;52.064;4.920;2023-02-11T12:13:11;13.10;;;7.68;;
42702;SDS011;28341;52.064;4.920;2023-02-11T12:15:28;12.15;;;7.35;;
42702;SDS011;28341;52.064;4.920;2023-02-11T12:17:41;11.93;;;7.60;;
42702;SDS011;28341;52.064;4.920;2023-02-11T12:20:20;11.35;;;7.75;;
42702;SDS011;28341;52.064;4.920;2023-02-11T12:22:34;13.50;;;9.00;;
42702;SDS011;28341;52.064;4.920;2023-02-11T12:24:50;13.52;;;8.82;;
42702;SDS011;28341;52.064;4.920;2023-02-11T12:27:04;13.10;;;9.18;;
42702;SDS011;28341;52.064;4.920;2023-02-11T12:29:18;14.30;;;8.75;;
42702;SDS011;28341;52.064;4.920;2023-02-11T12:31:33;15.35;;;8.73;;
42702;SDS011;28341;52.064;4.920;2023-02-11T12:36:51;13.68;;;9.77;;
42702;SDS011;28341;52.064;4.920;2023-02-11T12:39:09;14.43;;;8.63;;
42702;SDS011;28341;52.064;4.920;2023-02-11T12:41:27;11.68;;;8.93;;
42702;SDS011;28341;52.064;4.920;2023-02-11T12:43:56;13.48;;;8.23;;
42702;SDS011;28341;52.064;4.920;2023-02-11T12:48:45;12.95;;;8.38;;
42702;SDS011;28341;52.064;4.920;2023-02-11T12:51:12;78.75;;;61.10;;
42702;SDS011;28341;52.064;4.920;2023-02-11T12:56:04;50.72;;;42.67;;
42702;SDS011;28341;52.064;4.920;2023-02-11T12:58:15;105.55;;;82.22;;
42702;SDS011;28341;52.064;4.920;2023-02-11T13:00:23;13.82;;;8.63;;
42702;SDS011;28341;52.064;4.920;2023-02-11T13:02:32;12.38;;;7.47;;